Wrington, United Kingdom
Current Conditions -  °F | °C
As of 2:20 PM on Monday 20 Oct 2014 (Local Time) from EGGD Reporting Station
Rain Showers Rain Showers  
Wind Chill: 57°   Ceiling: Unl
Heat Index: 57°   Visibility: 6mi
Dew Point: 50°   Wind: 15mph
Humidity: 77%   Direction: 240°WSW
Pressure: 29.97"   Gusts: NA
Location:  51.36°N, 2.76°W
Report Text: EGGD 201320Z 24013KT 9999 VCSH FEW024TCU FEW033 14/10 Q1015
Loading
Personal Weather Stations






























Interactive Weather Map
Tropical Storm Tracking
New forecast layout! Learn more

10-Day Weather Forecast

Advertisements
Track Severe Weather on mobile